sensor_id;sensor_type;location;lat;lon;timestamp;pressure;altitude;pressure_sealevel;temperature;humidity
55187;BME280;55457;52.002;5.464;2023-04-10T00:02:11;101875.66;;;22.35;40.49
55187;BME280;55457;52.002;5.464;2023-04-10T00:04:36;101876.47;;;22.36;40.23
55187;BME280;55457;52.002;5.464;2023-04-10T00:07:01;101862.91;;;22.36;40.46
55187;BME280;55457;52.002;5.464;2023-04-10T00:09:26;101862.06;;;22.35;40.33
55187;BME280;55457;52.002;5.464;2023-04-10T00:11:53;101859.38;;;22.35;40.19
55187;BME280;55457;52.002;5.464;2023-04-10T00:14:18;101860.19;;;22.36;40.42
55187;BME280;55457;52.002;5.464;2023-04-10T00:16:47;101857.47;;;22.36;40.34
55187;BME280;55457;52.002;5.464;2023-04-10T00:19:12;101857.47;;;22.36;40.36
55187;BME280;55457;52.002;5.464;2023-04-10T00:21:37;101845.78;;;22.35;40.52
55187;BME280;55457;52.002;5.464;2023-04-10T00:24:03;101850.16;;;22.36;40.39
55187;BME280;55457;52.002;5.464;2023-04-10T00:26:29;101843.06;;;22.35;40.54
55187;BME280;55457;52.002;5.464;2023-04-10T00:28:54;101838.69;;;22.34;40.24
55187;BME280;55457;52.002;5.464;2023-04-10T00:31:20;101834.09;;;22.35;40.48
55187;BME280;55457;52.002;5.464;2023-04-10T00:33:45;101827.84;;;22.34;40.27
55187;BME280;55457;52.002;5.464;2023-04-10T00:36:10;101815.09;;;22.35;40.14
55187;BME280;55457;52.002;5.464;2023-04-10T00:38:35;101816.97;;;22.34;40.36
55187;BME280;55457;52.002;5.464;2023-04-10T00:41:01;101816.13;;;22.34;40.30
55187;BME280;55457;52.002;5.464;2023-04-10T00:43:27;101809.88;;;22.33;40.14
55187;BME280;55457;52.002;5.464;2023-04-10T00:45:52;101809.28;;;22.31;40.17
55187;BME280;55457;52.002;5.464;2023-04-10T00:48:17;101814.47;;;22.33;40.18
55187;BME280;55457;52.002;5.464;2023-04-10T00:50:42;101822.63;;;22.33;40.11
55187;BME280;55457;52.002;5.464;2023-04-10T00:53:09;101815.28;;;22.33;40.37
55187;BME280;55457;52.002;5.464;2023-04-10T00:55:35;101809.03;;;22.33;40.38
55187;BME280;55457;52.002;5.464;2023-04-10T00:58:00;101806.31;;;22.33;40.42
55187;BME280;55457;52.002;5.464;2023-04-10T01:00:26;101803.84;;;22.31;40.08
55187;BME280;55457;52.002;5.464;2023-04-10T01:02:52;101801.13;;;22.31;40.35
55187;BME280;55457;52.002;5.464;2023-04-10T01:05:18;101800.31;;;22.31;40.31
55187;BME280;55457;52.002;5.464;2023-04-10T01:15:12;101791.34;;;22.30;40.11
55187;BME280;55457;52.002;5.464;2023-04-10T01:17:45;101786.97;;;22.29;40.38
55187;BME280;55457;52.002;5.464;2023-04-10T01:20:15;101780.47;;;22.30;40.06
55187;BME280;55457;52.002;5.464;2023-04-10T01:25:16;101777.75;;;22.30;40.10
55187;BME280;55457;52.002;5.464;2023-04-10T01:30:27;101776.94;;;22.30;40.24
55187;BME280;55457;52.002;5.464;2023-04-10T01:32:53;101769.81;;;22.29;40.32
55187;BME280;55457;52.002;5.464;2023-04-10T01:35:19;101769.81;;;22.29;40.24
55187;BME280;55457;52.002;5.464;2023-04-10T01:37:45;101763.34;;;22.30;39.95
55187;BME280;55457;52.002;5.464;2023-04-10T01:40:13;101759.81;;;22.29;40.29
55187;BME280;55457;52.002;5.464;2023-04-10T01:42:52;101754.59;;;22.28;39.96
55187;BME280;55457;52.002;5.464;2023-04-10T01:45:19;101753.53;;;22.29;40.12
55187;BME280;55457;52.002;5.464;2023-04-10T01:47:46;101751.88;;;22.28;40.11
55187;BME280;55457;52.002;5.464;2023-04-10T01:50:11;101754.59;;;22.28;39.91
55187;BME280;55457;52.002;5.464;2023-04-10T01:52:38;101746.47;;;22.28;40.14
55187;BME280;55457;52.002;5.464;2023-04-10T01:55:04;101747.28;;;22.28;40.17
55187;BME280;55457;52.002;5.464;2023-04-10T01:57:31;101743.75;;;22.28;39.94
55187;BME280;55457;52.002;5.464;2023-04-10T01:59:57;101755.44;;;22.28;39.72
55187;BME280;55457;52.002;5.464;2023-04-10T02:02:22;101740.19;;;22.27;39.70
55187;BME280;55457;52.002;5.464;2023-04-10T02:04:47;101739.38;;;22.27;39.86
55187;BME280;55457;52.002;5.464;2023-04-10T02:07:19;101745.88;;;22.26;39.60
55187;BME280;55457;52.002;5.464;2023-04-10T02:12:30;101739.38;;;22.27;39.78
55187;BME280;55457;52.002;5.464;2023-04-10T02:14:58;101740.44;;;22.26;39.70
55187;BME280;55457;52.002;5.464;2023-04-10T02:17:25;101744.81;;;22.27;39.85
55187;BME280;55457;52.002;5.464;2023-04-10T02:19:52;101738.78;;;22.25;39.53
55187;BME280;55457;52.002;5.464;2023-04-10T02:22:19;101735.84;;;22.26;39.58
55187;BME280;55457;52.002;5.464;2023-04-10T02:24:44;101735.00;;;22.26;39.81
55187;BME280;55457;52.002;5.464;2023-04-10T02:27:10;101737.72;;;22.26;39.68
55187;BME280;55457;52.002;5.464;2023-04-10T02:29:35;101736.91;;;22.25;39.66
55187;BME280;55457;52.002;5.464;2023-04-10T02:32:00;101736.09;;;22.25;39.81
55187;BME280;55457;52.002;5.464;2023-04-10T02:34:25;101736.91;;;22.25;39.55
55187;BME280;55457;52.002;5.464;2023-04-10T02:36:51;101741.50;;;22.25;39.71
55187;BME280;55457;52.002;5.464;2023-04-10T02:39:16;101736.09;;;22.25;39.86
55187;BME280;55457;52.002;5.464;2023-04-10T02:41:41;101735.25;;;22.24;39.61
55187;BME280;55457;52.002;5.464;2023-04-10T02:44:07;101737.97;;;22.24;39.79
55187;BME280;55457;52.002;5.464;2023-04-10T02:46:32;101739.84;;;22.24;39.71
55187;BME280;55457;52.002;5.464;2023-04-10T02:48:57;101733.56;;;22.23;39.76
55187;BME280;55457;52.002;5.464;2023-04-10T02:51:22;101739.25;;;22.22;39.74
55187;BME280;55457;52.002;5.464;2023-04-10T02:53:47;101739.00;;;22.23;39.76
55187;BME280;55457;52.002;5.464;2023-04-10T02:56:13;101736.53;;;22.22;39.66
55187;BME280;55457;52.002;5.464;2023-04-10T02:58:38;101739.25;;;22.22;39.89
55187;BME280;55457;52.002;5.464;2023-04-10T03:01:04;101736.53;;;22.22;39.88
55187;BME280;55457;52.002;5.464;2023-04-10T03:03:29;101736.53;;;22.22;39.73
55187;BME280;55457;52.002;5.464;2023-04-10T03:05:54;101742.78;;;22.22;39.76
55187;BME280;55457;52.002;5.464;2023-04-10T03:08:20;101745.75;;;22.21;39.61
55187;BME280;55457;52.002;5.464;2023-04-10T03:10:45;101739.25;;;22.22;39.87
55187;BME280;55457;52.002;5.464;2023-04-10T03:13:12;101743.84;;;22.21;39.72
55187;BME280;55457;52.002;5.464;2023-04-10T03:15:37;101742.78;;;22.22;39.82
55187;BME280;55457;52.002;5.464;2023-04-10T03:18:03;101744.69;;;22.22;39.73
55187;BME280;55457;52.002;5.464;2023-04-10T03:20:29;101740.31;;;22.21;39.76
55187;BME280;55457;52.002;5.464;2023-04-10T03:22:54;101736.53;;;22.22;39.72
55187;BME280;55457;52.002;5.464;2023-04-10T03:25:20;101729.47;;;22.21;39.81
55187;BME280;55457;52.002;5.464;2023-04-10T03:27:45;101730.28;;;22.21;39.88
55187;BME280;55457;52.002;5.464;2023-04-10T03:30:11;101729.47;;;22.21;39.82
55187;BME280;55457;52.002;5.464;2023-04-10T03:32:36;101724.84;;;22.21;39.81
55187;BME280;55457;52.002;5.464;2023-04-10T03:35:03;101727.56;;;22.21;39.77
55187;BME280;55457;52.002;5.464;2023-04-10T03:37:28;101727.56;;;22.21;40.08
55187;BME280;55457;52.002;5.464;2023-04-10T03:39:53;101723.22;;;22.20;40.10
55187;BME280;55457;52.002;5.464;2023-04-10T03:42:18;101719.41;;;22.21;39.86
55187;BME280;55457;52.002;5.464;2023-04-10T03:44:44;101718.59;;;22.21;39.96
55187;BME280;55457;52.002;5.464;2023-04-10T03:47:09;101713.16;;;22.21;40.18
55187;BME280;55457;52.002;5.464;2023-04-10T03:49:34;101713.16;;;22.21;40.13
55187;BME280;55457;52.002;5.464;2023-04-10T03:52:00;101701.47;;;22.20;39.94
55187;BME280;55457;52.002;5.464;2023-04-10T03:54:25;101711.53;;;22.20;40.20
55187;BME280;55457;52.002;5.464;2023-04-10T03:56:50;101706.09;;;22.20;40.10
55187;BME280;55457;52.002;5.464;2023-04-10T03:59:15;101704.19;;;22.20;40.01
55187;BME280;55457;52.002;5.464;2023-04-10T04:01:41;101699.00;;;22.19;40.04
55187;BME280;55457;52.002;5.464;2023-04-10T04:04:06;101689.81;;;22.20;40.02
55187;BME280;55457;52.002;5.464;2023-04-10T04:06:31;101692.72;;;22.18;39.91
55187;BME280;55457;52.002;5.464;2023-04-10T04:08:56;101689.19;;;22.18;40.13
55187;BME280;55457;52.002;5.464;2023-04-10T04:11:21;101680.84;;;22.19;40.22
55187;BME280;55457;52.002;5.464;2023-04-10T04:13:47;101685.44;;;22.19;39.78
55187;BME280;55457;52.002;5.464;2023-04-10T04:16:12;101680.84;;;22.19;39.81
55187;BME280;55457;52.002;5.464;2023-04-10T04:18:37;101686.25;;;22.19;39.84
55187;BME280;55457;52.002;5.464;2023-04-10T04:21:02;101681.03;;;22.18;39.69
55187;BME280;55457;52.002;5.464;2023-04-10T04:23:28;101682.94;;;22.17;39.74
55187;BME280;55457;52.002;5.464;2023-04-10T04:25:53;101673.97;;;22.17;39.78
55187;BME280;55457;52.002;5.464;2023-04-10T04:28:20;101676.69;;;22.17;39.73
55187;BME280;55457;52.002;5.464;2023-04-10T04:30:45;101684.81;;;22.17;39.92
55187;BME280;55457;52.002;5.464;2023-04-10T04:33:10;101684.81;;;22.17;39.72
55187;BME280;55457;52.002;5.464;2023-04-10T04:35:36;101681.03;;;22.18;39.99
55187;BME280;55457;52.002;5.464;2023-04-10T04:38:01;101667.72;;;22.16;39.79
55187;BME280;55457;52.002;5.464;2023-04-10T04:40:26;101673.97;;;22.17;39.90
55187;BME280;55457;52.002;5.464;2023-04-10T04:42:51;101673.97;;;22.17;39.51
55187;BME280;55457;52.002;5.464;2023-04-10T04:45:16;101672.31;;;22.16;39.58
55187;BME280;55457;52.002;5.464;2023-04-10T04:47:42;101666.91;;;22.16;39.64
55187;BME280;55457;52.002;5.464;2023-04-10T04:50:07;101669.59;;;22.16;39.79
55187;BME280;55457;52.002;5.464;2023-04-10T04:52:32;101670.69;;;22.14;39.96
55187;BME280;55457;52.002;5.464;2023-04-10T04:54:59;101669.84;;;22.14;39.73
55187;BME280;55457;52.002;5.464;2023-04-10T04:57:24;101667.13;;;22.14;39.90
55187;BME280;55457;52.002;5.464;2023-04-10T04:59:49;101670.69;;;22.14;39.58
55187;BME280;55457;52.002;5.464;2023-04-10T05:02:15;101660.88;;;22.13;39.63
55187;BME280;55457;52.002;5.464;2023-04-10T05:04:40;101663.59;;;22.13;39.39
55187;BME280;55457;52.002;5.464;2023-04-10T05:07:06;101662.75;;;22.13;39.42
55187;BME280;55457;52.002;5.464;2023-04-10T05:09:31;101658.16;;;22.13;39.79
55187;BME280;55457;52.002;5.464;2023-04-10T05:11:56;101653.78;;;22.12;39.48
55187;BME280;55457;52.002;5.464;2023-04-10T05:14:21;101652.94;;;22.12;39.78
55187;BME280;55457;52.002;5.464;2023-04-10T05:16:46;101648.34;;;22.12;39.58
55187;BME280;55457;52.002;5.464;2023-04-10T05:19:12;101656.50;;;22.12;39.64
55187;BME280;55457;52.002;5.464;2023-04-10T05:21:37;101659.22;;;22.12;39.40
55187;BME280;55457;52.002;5.464;2023-04-10T05:24:02;101653.78;;;22.12;39.43
55187;BME280;55457;52.002;5.464;2023-04-10T05:26:27;101646.09;;;22.09;39.66
55187;BME280;55457;52.002;5.464;2023-04-10T05:28:53;101650.25;;;22.12;39.47
55187;BME280;55457;52.002;5.464;2023-04-10T05:31:18;101644.81;;;22.12;39.57
55187;BME280;55457;52.002;5.464;2023-04-10T05:33:43;101637.50;;;22.12;39.40
55187;BME280;55457;52.002;5.464;2023-04-10T05:36:09;101642.91;;;22.12;39.64
55187;BME280;55457;52.002;5.464;2023-04-10T05:38:34;101647.53;;;22.12;39.48
55187;BME280;55457;52.002;5.464;2023-04-10T05:41:00;101654.38;;;22.14;39.37
55187;BME280;55457;52.002;5.464;2023-04-10T05:43:25;101648.97;;;22.14;39.59
55187;BME280;55457;52.002;5.464;2023-04-10T05:45:50;101648.97;;;22.14;39.42
55187;BME280;55457;52.002;5.464;2023-04-10T05:48:15;101650.03;;;22.13;39.42
55187;BME280;55457;52.002;5.464;2023-04-10T05:50:41;101645.63;;;22.12;39.45
55187;BME280;55457;52.002;5.464;2023-04-10T05:53:12;101647.31;;;22.13;39.29
55187;BME280;55457;52.002;5.464;2023-04-10T05:55:38;101653.78;;;22.12;39.34
55187;BME280;55457;52.002;5.464;2023-04-10T05:58:03;101653.78;;;22.12;39.60
55187;BME280;55457;52.002;5.464;2023-04-10T06:00:29;101656.50;;;22.12;39.25
55187;BME280;55457;52.002;5.464;2023-04-10T06:02:54;101649.41;;;22.11;39.59
55187;BME280;55457;52.002;5.464;2023-04-10T06:05:19;101639.38;;;22.12;39.38
55187;BME280;55457;52.002;5.464;2023-04-10T06:07:45;101633.94;;;22.12;39.61
55187;BME280;55457;52.002;5.464;2023-04-10T06:10:10;101630.41;;;22.11;39.53
55187;BME280;55457;52.002;5.464;2023-04-10T06:12:35;101626.88;;;22.11;39.48
55187;BME280;55457;52.002;5.464;2023-04-10T06:15:00;101618.72;;;22.11;39.60
55187;BME280;55457;52.002;5.464;2023-04-10T06:17:26;101616.84;;;22.11;39.40
55187;BME280;55457;52.002;5.464;2023-04-10T06:19:52;101616.00;;;22.11;39.71
55187;BME280;55457;52.002;5.464;2023-04-10T06:22:17;101615.19;;;22.10;39.53
55187;BME280;55457;52.002;5.464;2023-04-10T06:24:42;101616.00;;;22.11;39.51
55187;BME280;55457;52.002;5.464;2023-04-10T06:27:07;101616.22;;;22.09;38.97
55187;BME280;55457;52.002;5.464;2023-04-10T06:29:32;101600.03;;;22.03;36.79
55187;BME280;55457;52.002;5.464;2023-04-10T06:31:58;101602.63;;;21.98;36.71
55187;BME280;55457;52.002;5.464;2023-04-10T06:34:23;101603.38;;;21.93;36.47
55187;BME280;55457;52.002;5.464;2023-04-10T06:36:48;101588.63;;;21.89;37.00
55187;BME280;55457;52.002;5.464;2023-04-10T06:39:13;101584.25;;;21.88;37.27
55187;BME280;55457;52.002;5.464;2023-04-10T06:41:39;101581.75;;;21.86;37.63
55187;BME280;55457;52.002;5.464;2023-04-10T06:44:04;101582.56;;;21.87;37.56
55187;BME280;55457;52.002;5.464;2023-04-10T06:46:29;101576.94;;;21.88;37.62
55187;BME280;55457;52.002;5.464;2023-04-10T06:48:55;101570.69;;;21.88;38.08
55187;BME280;55457;52.002;5.464;2023-04-10T06:51:20;101569.63;;;21.89;37.83
55187;BME280;55457;52.002;5.464;2023-04-10T06:53:45;101565.84;;;21.90;37.97
55187;BME280;55457;52.002;5.464;2023-04-10T06:56:10;101569.63;;;21.89;38.08
55187;BME280;55457;52.002;5.464;2023-04-10T06:58:35;101561.22;;;21.91;37.97
55187;BME280;55457;52.002;5.464;2023-04-10T07:01:01;101558.28;;;21.92;38.21
55187;BME280;55457;52.002;5.464;2023-04-10T07:03:28;101553.69;;;21.93;38.02
55187;BME280;55457;52.002;5.464;2023-04-10T07:05:53;101549.09;;;21.93;38.09
55187;BME280;55457;52.002;5.464;2023-04-10T07:08:19;101543.41;;;21.95;38.05
55187;BME280;55457;52.002;5.464;2023-04-10T07:10:44;101537.16;;;21.94;38.09
55187;BME280;55457;52.002;5.464;2023-04-10T07:13:09;101531.50;;;21.96;38.04
55187;BME280;55457;52.002;5.464;2023-04-10T07:15:34;101530.69;;;21.95;38.05
55187;BME280;55457;52.002;5.464;2023-04-10T07:18:00;101523.34;;;21.96;38.01
55187;BME280;55457;52.002;5.464;2023-04-10T07:20:25;101526.06;;;21.96;38.31
55187;BME280;55457;52.002;5.464;2023-04-10T07:22:51;101522.53;;;21.95;38.35
55187;BME280;55457;52.002;5.464;2023-04-10T07:25:17;101517.69;;;21.97;37.99
55187;BME280;55457;52.002;5.464;2023-04-10T07:27:42;101512.25;;;21.97;38.25
55187;BME280;55457;52.002;5.464;2023-04-10T07:30:07;101513.06;;;21.98;38.32
55187;BME280;55457;52.002;5.464;2023-04-10T07:32:33;101510.16;;;21.99;38.13
55187;BME280;55457;52.002;5.464;2023-04-10T07:34:58;101504.72;;;21.99;38.08
55187;BME280;55457;52.002;5.464;2023-04-10T07:37:24;101504.72;;;21.99;38.24
55187;BME280;55457;52.002;5.464;2023-04-10T07:39:49;101494.69;;;22.00;38.10
55187;BME280;55457;52.002;5.464;2023-04-10T07:42:15;101501.75;;;22.01;38.21
55187;BME280;55457;52.002;5.464;2023-04-10T07:44:41;101487.34;;;22.00;38.03
55187;BME280;55457;52.002;5.464;2023-04-10T07:47:06;101486.28;;;22.01;38.07
55187;BME280;55457;52.002;5.464;2023-04-10T07:49:31;101489.00;;;22.01;38.22
55187;BME280;55457;52.002;5.464;2023-04-10T07:51:56;101478.97;;;22.02;38.18
55187;BME280;55457;52.002;5.464;2023-04-10T07:54:22;101477.56;;;21.99;38.38
55187;BME280;55457;52.002;5.464;2023-04-10T07:56:47;101472.97;;;22.00;38.18
55187;BME280;55457;52.002;5.464;2023-04-10T07:59:12;101474.03;;;21.99;38.54
55187;BME280;55457;52.002;5.464;2023-04-10T08:01:37;101471.31;;;21.99;38.37
55187;BME280;55457;52.002;5.464;2023-04-10T08:04:03;101455.88;;;21.99;38.24
55187;BME280;55457;52.002;5.464;2023-04-10T08:06:28;101466.72;;;21.99;38.13
55187;BME280;55457;52.002;5.464;2023-04-10T08:08:53;101469.19;;;22.01;38.39
55187;BME280;55457;52.002;5.464;2023-04-10T08:11:31;101463.75;;;22.01;38.39
55187;BME280;55457;52.002;5.464;2023-04-10T08:13:58;101465.41;;;22.02;38.28
55187;BME280;55457;52.002;5.464;2023-04-10T08:16:31;101464.34;;;22.03;38.11
55187;BME280;55457;52.002;5.464;2023-04-10T08:18:56;101457.84;;;22.04;38.41
55187;BME280;55457;52.002;5.464;2023-04-10T08:21:22;101458.91;;;22.03;38.40
55187;BME280;55457;52.002;5.464;2023-04-10T08:23:59;101455.97;;;22.04;38.53
55187;BME280;55457;52.002;5.464;2023-04-10T08:26:25;101461.97;;;22.06;38.73
55187;BME280;55457;52.002;5.464;2023-04-10T08:28:51;101457.38;;;22.07;38.62
55187;BME280;55457;52.002;5.464;2023-04-10T08:31:20;101441.91;;;22.07;38.60
55187;BME280;55457;52.002;5.464;2023-04-10T08:33:45;101438.16;;;22.08;38.37
55187;BME280;55457;52.002;5.464;2023-04-10T08:36:11;101425.63;;;22.07;38.32
55187;BME280;55457;52.002;5.464;2023-04-10T08:38:42;101427.28;;;22.08;38.14
55187;BME280;55457;52.002;5.464;2023-04-10T08:41:10;101422.91;;;22.07;38.24
55187;BME280;55457;52.002;5.464;2023-04-10T08:43:36;101434.38;;;22.09;38.31
55187;BME280;55457;52.002;5.464;2023-04-10T08:46:01;101425.41;;;22.09;38.29
55187;BME280;55457;52.002;5.464;2023-04-10T08:48:30;101421.84;;;22.08;38.29
55187;BME280;55457;52.002;5.464;2023-04-10T08:50:56;101422.69;;;22.09;38.13
55187;BME280;55457;52.002;5.464;2023-04-10T08:53:24;101428.94;;;22.09;38.48
55187;BME280;55457;52.002;5.464;2023-04-10T08:55:52;101421.00;;;22.08;38.18
55187;BME280;55457;52.002;5.464;2023-04-10T08:58:18;101423.72;;;22.08;38.45
55187;BME280;55457;52.002;5.464;2023-04-10T09:00:43;101419.16;;;22.08;38.61
55187;BME280;55457;52.002;5.464;2023-04-10T09:03:08;101416.44;;;22.08;38.53
55187;BME280;55457;52.002;5.464;2023-04-10T09:05:35;101412.03;;;22.07;38.59
55187;BME280;55457;52.002;5.464;2023-04-10T09:08:01;101401.19;;;22.07;38.54
55187;BME280;55457;52.002;5.464;2023-04-10T09:10:26;101404.72;;;22.08;38.76
55187;BME280;55457;52.002;5.464;2023-04-10T09:12:51;101394.94;;;22.07;38.48
55187;BME280;55457;52.002;5.464;2023-04-10T09:15:16;101392.47;;;22.05;38.63
55187;BME280;55457;52.002;5.464;2023-04-10T09:18:01;101392.47;;;22.05;38.61
55187;BME280;55457;52.002;5.464;2023-04-10T09:20:30;101389.75;;;22.05;38.47
55187;BME280;55457;52.002;5.464;2023-04-10T09:22:55;101388.69;;;22.06;38.50
55187;BME280;55457;52.002;5.464;2023-04-10T09:25:31;101375.13;;;22.06;38.68
55187;BME280;55457;52.002;5.464;2023-04-10T09:28:04;101377.81;;;22.06;38.62
55187;BME280;55457;52.002;5.464;2023-04-10T09:30:33;101371.31;;;22.07;38.35
55187;BME280;55457;52.002;5.464;2023-04-10T09:32:59;101367.56;;;22.08;38.67
55187;BME280;55457;52.002;5.464;2023-04-10T09:35:33;101362.16;;;22.08;38.41
55187;BME280;55457;52.002;5.464;2023-04-10T09:37:58;101362.16;;;22.08;38.25
55187;BME280;55457;52.002;5.464;2023-04-10T09:40:24;101351.28;;;22.08;38.20
55187;BME280;55457;52.002;5.464;2023-04-10T09:42:49;101342.53;;;22.06;38.33
55187;BME280;55457;52.002;5.464;2023-04-10T09:45:14;101342.53;;;22.06;38.47
55187;BME280;55457;52.002;5.464;2023-04-10T09:47:53;101339.84;;;22.06;38.53
55187;BME280;55457;52.002;5.464;2023-04-10T09:50:32;101333.31;;;22.07;38.63
55187;BME280;55457;52.002;5.464;2023-04-10T09:52:57;101331.69;;;22.06;38.40
55187;BME280;55457;52.002;5.464;2023-04-10T09:55:23;101332.28;;;22.08;38.34
55187;BME280;55457;52.002;5.464;2023-04-10T09:57:48;101324.97;;;22.09;38.35
55187;BME280;55457;52.002;5.464;2023-04-10T10:00:13;101326.84;;;22.08;38.22
55187;BME280;55457;52.002;5.464;2023-04-10T10:02:38;101327.47;;;22.10;38.20
55187;BME280;55457;52.002;5.464;2023-04-10T10:05:06;101317.03;;;22.07;37.99
55187;BME280;55457;52.002;5.464;2023-04-10T10:07:32;101314.09;;;22.09;38.15
55187;BME280;55457;52.002;5.464;2023-04-10T10:09:58;101314.72;;;22.11;38.32
55187;BME280;55457;52.002;5.464;2023-04-10T10:12:44;101319.88;;;22.12;38.10
55187;BME280;55457;52.002;5.464;2023-04-10T10:17:57;101304.19;;;22.14;38.24
55187;BME280;55457;52.002;5.464;2023-04-10T10:20:27;101294.97;;;22.16;38.41
55187;BME280;55457;52.002;5.464;2023-04-10T10:22:55;101285.75;;;22.17;38.50
55187;BME280;55457;52.002;5.464;2023-04-10T10:25:21;101291.78;;;22.19;38.53
55187;BME280;55457;52.002;5.464;2023-04-10T10:27:48;101280.94;;;22.19;38.37
55187;BME280;55457;52.002;5.464;2023-04-10T10:30:13;101271.72;;;22.20;38.26
55187;BME280;55457;52.002;5.464;2023-04-10T10:32:41;101273.34;;;22.21;38.25
55187;BME280;55457;52.002;5.464;2023-04-10T10:35:06;101263.66;;;22.25;38.05
55187;BME280;55457;52.002;5.464;2023-04-10T10:37:33;101252.78;;;22.25;38.24
55187;BME280;55457;52.002;5.464;2023-04-10T10:40:09;101259.03;;;22.25;38.30
55187;BME280;55457;52.002;5.464;2023-04-10T10:47:49;101253.91;;;22.29;37.81
55187;BME280;55457;52.002;5.464;2023-04-10T10:50:15;101243.91;;;22.29;37.63
55187;BME280;55457;52.002;5.464;2023-04-10T10:52:47;101238.78;;;22.33;37.79
55187;BME280;55457;52.002;5.464;2023-04-10T10:57:47;101240.78;;;22.37;37.75
55187;BME280;55457;52.002;5.464;2023-04-10T11:00:13;101228.00;;;22.38;37.65
55187;BME280;55457;52.002;5.464;2023-04-10T11:02:38;101226.38;;;22.37;37.64
55187;BME280;55457;52.002;5.464;2023-04-10T11:05:04;101226.63;;;22.35;37.27
55187;BME280;55457;52.002;5.464;2023-04-10T11:08:06;101207.53;;;22.30;37.38
55187;BME280;55457;52.002;5.464;2023-04-10T11:13:14;101195.84;;;22.30;37.89
55187;BME280;55457;52.002;5.464;2023-04-10T11:15:39;101192.06;;;22.31;37.96
55187;BME280;55457;52.002;5.464;2023-04-10T11:18:05;101196.16;;;22.33;38.09
55187;BME280;55457;52.002;5.464;2023-04-10T11:20:31;101187.78;;;22.35;38.12
55187;BME280;55457;52.002;5.464;2023-04-10T11:23:16;101184.00;;;22.36;37.80
55187;BME280;55457;52.002;5.464;2023-04-10T11:25:45;101177.50;;;22.37;38.11
55187;BME280;55457;52.002;5.464;2023-04-10T11:28:22;101179.13;;;22.38;37.87
55187;BME280;55457;52.002;5.464;2023-04-10T11:30:55;101163.44;;;22.40;37.93
55187;BME280;55457;52.002;5.464;2023-04-10T11:33:20;101164.25;;;22.40;37.60
55187;BME280;55457;52.002;5.464;2023-04-10T11:35:46;101157.75;;;22.42;37.88
55187;BME280;55457;52.002;5.464;2023-04-10T11:38:12;101159.13;;;22.44;37.58
55187;BME280;55457;52.002;5.464;2023-04-10T11:40:57;101150.97;;;22.44;37.91
55187;BME280;55457;52.002;5.464;2023-04-10T11:43:23;101142.59;;;22.46;37.61
55187;BME280;55457;52.002;5.464;2023-04-10T11:45:48;101136.91;;;22.47;37.83
55187;BME280;55457;52.002;5.464;2023-04-10T11:48:14;101131.47;;;22.47;37.65
55187;BME280;55457;52.002;5.464;2023-04-10T11:50:41;101127.69;;;22.48;37.55
55187;BME280;55457;52.002;5.464;2023-04-10T11:53:19;101135.56;;;22.50;37.63
55187;BME280;55457;52.002;5.464;2023-04-10T11:55:45;101132.84;;;22.50;37.55
55187;BME280;55457;52.002;5.464;2023-04-10T11:58:24;101128.28;;;22.50;37.87
55187;BME280;55457;52.002;5.464;2023-04-10T12:00:58;101124.72;;;22.50;37.65
55187;BME280;55457;52.002;5.464;2023-04-10T12:03:40;101114.69;;;22.50;37.44
55187;BME280;55457;52.002;5.464;2023-04-10T12:06:12;101110.06;;;22.51;37.67
55187;BME280;55457;52.002;5.464;2023-04-10T12:08:42;101104.31;;;22.47;37.68
55187;BME280;55457;52.002;5.464;2023-04-10T12:11:10;101093.94;;;22.44;37.50
55187;BME280;55457;52.002;5.464;2023-04-10T12:13:35;101104.00;;;22.44;37.54
55187;BME280;55457;52.002;5.464;2023-04-10T12:16:02;101092.31;;;22.43;37.65
55187;BME280;55457;52.002;5.464;2023-04-10T12:18:28;101078.72;;;22.43;37.78
55187;BME280;55457;52.002;5.464;2023-04-10T12:20:54;101078.16;;;22.41;37.65
55187;BME280;55457;52.002;5.464;2023-04-10T12:23:22;101072.75;;;22.41;37.69
55187;BME280;55457;52.002;5.464;2023-04-10T12:25:47;101072.75;;;22.41;37.44
55187;BME280;55457;52.002;5.464;2023-04-10T12:28:19;101072.16;;;22.39;37.65
55187;BME280;55457;52.002;5.464;2023-04-10T12:30:48;101048.78;;;22.38;37.71
55187;BME280;55457;52.002;5.464;2023-04-10T12:33:19;101058.56;;;22.39;37.69
55187;BME280;55457;52.002;5.464;2023-04-10T12:35:44;101053.41;;;22.37;37.83
55187;BME280;55457;52.002;5.464;2023-04-10T12:38:09;101046.34;;;22.36;37.54
55187;BME280;55457;52.002;5.464;2023-04-10T12:40:35;101045.25;;;22.37;37.90
55187;BME280;55457;52.002;5.464;2023-04-10T12:43:02;101039.00;;;22.37;37.61
55187;BME280;55457;52.002;5.464;2023-04-10T12:45:48;101032.75;;;22.36;37.57
55187;BME280;55457;52.002;5.464;2023-04-10T12:48:21;101033.84;;;22.35;37.66
55187;BME280;55457;52.002;5.464;2023-04-10T12:50:46;101021.34;;;22.34;37.76
55187;BME280;55457;52.002;5.464;2023-04-10T12:53:12;101016.72;;;22.35;37.83
55187;BME280;55457;52.002;5.464;2023-04-10T12:55:37;101006.34;;;22.32;38.42
55187;BME280;55457;52.002;5.464;2023-04-10T12:58:18;101002.00;;;22.31;38.14
55187;BME280;55457;52.002;5.464;2023-04-10T13:00:44;101004.97;;;22.29;38.16
55187;BME280;55457;52.002;5.464;2023-04-10T13:03:09;100990.56;;;22.29;38.45
55187;BME280;55457;52.002;5.464;2023-04-10T13:05:34;100987.03;;;22.28;38.61
55187;BME280;55457;52.002;5.464;2023-04-10T13:08:00;100988.38;;;22.26;38.32
55187;BME280;55457;52.002;5.464;2023-04-10T13:10:25;100985.91;;;22.24;38.68
55187;BME280;55457;52.002;5.464;2023-04-10T13:12:50;100985.06;;;22.24;38.51
55187;BME280;55457;52.002;5.464;2023-04-10T13:15:16;100980.50;;;22.24;38.36
55187;BME280;55457;52.002;5.464;2023-04-10T13:17:41;100990.50;;;22.24;38.46